Terminal Aerodrome Forecast
Issued by NWS

Home | Current Version | Previous Version | Text Only | Print | Product List | Glossary On
Versions: 1 2 3 4 5 6 7 8 9 10 11 12 13 14 15 16 17 18 19 20 21
000
FTUS43 KGRB 280500
TAFMTW
TAF
KMTW 280538Z 2806/2906 27005KT P6SM BKN250
     FM281000 21003KT P6SM -SN SCT080 BKN120
     FM281400 18007KT 5SM -SN BR BKN030 OVC070
     FM281600 18007KT 2SM -SN BR OVC015
     FM290000 19005KT 5SM BR OVC012=

USA.gov is the U.S. government's official web portal to all federal, state and local government web resources and services.